Haro Strait: Past 24 Hour Conditions

 

East Dellwood - 46207

11:00 PM PST 26 November 2014Buoy position: 50.88N 129.93W
This table is a summary of hourly weather conditions for the past 24 hours.
Date / Time
(PST)
Wind(knots) Wave height(m) Wave period(s) Pressure(kPa) Air tempC) Water tempC)
26 November 2014
23:00 N 19 gust 23 2.8 7.0 99.9 9 11
22:00 NNW 21 gust 29 3.0 8.0 99.8 9 11
21:00 NNW 19 gust 25 2.7 7.0 99.6 10 11
20:00 WSW 4 gust 8 2.5 7.0 99.6 12 11
19:00 SW 12 gust 18 2.4 7.0 99.6 12 11
18:00 SE 21 gust 25 2.3 6.0 99.6 12 11
17:00 SE 21 gust 27 2.0 6.0 99.8 12 11
16:00 NE 19 gust 23 2.2 6.0 100.0 10 11
15:00 NE 27 gust 37 2.2 6.0 100.2 9 11
14:00 NE 25 gust 33 2.3 6.0 100.4 9 11
13:00 N/A N/A N/A N/A N/A N/A
12:00 ENE 25 gust 33 2.2 6.0 100.8 9 11
11:00 ENE 25 gust 35 2.2 6.0 100.9 9 11
10:00 ENE 23 gust 31 2.2 6.0 101.1 9 11
9:00 ENE 23 gust 29 2.1 5.0 101.2 9 11
8:00 ENE 21 gust 27 1.9 5.0 101.3 9 11
7:00 ENE 19 gust 25 1.9 11.0 101.4 9 11
6:00 ENE 18 gust 21 1.8 11.0 101.5 9 11
5:00 ENE 19 gust 23 1.7 11.0 101.5 9 11
4:00 ENE 19 gust 23 1.7 11.0 101.6 9 11
3:00 ENE 16 gust 19 1.7 12.0 101.7 9 11
2:00 NE 16 gust 19 1.8 11.0 101.7 9 11
1:00 NE 16 gust 19 1.7 11.0 101.8 9 11
0:00 ENE 16 gust 19 1.7 11.0 101.8 9 11
25 November 2014
23:00 ENE 14 gust 18 1.7 12.0 101.9 10 11
 
Map of Pacific - South Coast marine weather areas Tsawwassen Ferry Terminal South Nomad - 46036 Sentry Shoal - 46131 South Brooks - 46132 Halibut Bank - 46146 South Moresby - 46147 South Hecate Strait - 46185 West Sea Otter - 46204 La Perouse Bank - 46206 East Dellwood - 46207 Discovery Island Esquimalt Harbour Kelp Reefs Malahat Race Rocks Lightstation Saturna Island Sheringham Point University of Victoria Victoria Gonzales Victoria Int'l Airport Ballenas Islands Campbell River Airport Comox Airport Entrance Island Fanny Island Nanaimo Airport Port Hardy Airport Sisters Islets Estevan Point Sartine Island Solander Island Tofino Airport Grief Point Powell River Airport Sechelt Cape St.James Bella Bella Airport Bella Coola Airport Cathedral Point Herbert Island Point Atkinson Sand Heads Lightstation Vancouver Harbour Vancouver Int'l Airport West Vancouver Port Alberni Howe Sound - Pam Rocks Squamish Airport